createdAt,value
2017-10-16T00:00:22.580Z,63.50
2017-10-16T00:01:27.574Z,63.50
2017-10-16T00:02:32.493Z,63.50
2017-10-16T00:03:37.225Z,63.50
2017-10-16T00:04:42.029Z,63.50
2017-10-16T00:05:46.799Z,63.40
2017-10-16T00:06:51.598Z,63.40
2017-10-16T00:07:56.453Z,63.40
2017-10-16T00:09:01.405Z,63.40
2017-10-16T00:10:06.154Z,63.40
2017-10-16T00:11:11.016Z,63.40
2017-10-16T00:12:15.779Z,63.40
2017-10-16T00:13:20.498Z,63.30
2017-10-16T00:14:25.303Z,63.30
2017-10-16T00:15:30.028Z,63.30
2017-10-16T00:16:35.015Z,63.20
2017-10-16T00:17:39.864Z,63.20
2017-10-16T00:18:44.818Z,63.20
2017-10-16T00:19:49.666Z,63.20
2017-10-16T00:20:54.327Z,63.30
2017-10-16T00:21:59.159Z,63.20
2017-10-16T00:23:03.930Z,63.20
2017-10-16T00:24:08.838Z,63.20
2017-10-16T00:25:13.664Z,63.20
2017-10-16T00:26:18.321Z,63.10
2017-10-16T00:27:23.255Z,63.10
2017-10-16T00:28:28.415Z,63.10
2017-10-16T00:29:33.253Z,63.10
2017-10-16T00:30:38.104Z,63.10
2017-10-16T00:31:42.964Z,63.10
2017-10-16T00:32:47.921Z,63.10
2017-10-16T00:33:52.862Z,63.10
2017-10-16T00:34:57.790Z,63.10
2017-10-16T00:36:03.123Z,63.00
2017-10-16T00:37:08.043Z,63.10
2017-10-16T00:38:12.986Z,63.00
2017-10-16T00:39:18.027Z,63.00
2017-10-16T00:40:22.794Z,63.10
2017-10-16T00:41:27.643Z,63.10
2017-10-16T00:42:33.277Z,62.90
2017-10-16T00:43:38.117Z,62.90
2017-10-16T00:44:42.930Z,62.90
2017-10-16T00:45:47.657Z,62.90
2017-10-16T00:46:52.457Z,62.90
2017-10-16T00:47:57.233Z,62.90
2017-10-16T00:49:02.036Z,62.90
2017-10-16T00:50:06.791Z,62.80
2017-10-16T00:51:11.566Z,62.90
2017-10-16T00:52:16.328Z,62.90
2017-10-16T00:53:21.281Z,62.90
2017-10-16T00:54:26.035Z,62.80
2017-10-16T00:55:31.016Z,62.80
2017-10-16T00:56:36.239Z,62.80
2017-10-16T00:57:40.947Z,62.70
2017-10-16T00:58:45.894Z,62.60
2017-10-16T00:59:50.813Z,62.70
2017-10-16T01:00:55.702Z,62.70
2017-10-16T01:02:00.361Z,62.80
2017-10-16T01:03:05.023Z,62.70
2017-10-16T01:04:09.971Z,62.70
2017-10-16T01:05:14.684Z,62.70
2017-10-16T01:06:19.609Z,62.70
2017-10-16T01:07:24.573Z,62.70
2017-10-16T01:08:29.548Z,62.70
2017-10-16T01:09:34.334Z,62.70
2017-10-16T01:10:39.317Z,62.70
2017-10-16T01:11:44.127Z,62.60
2017-10-16T01:12:49.008Z,62.70
2017-10-16T01:13:53.842Z,62.70
2017-10-16T01:14:58.690Z,62.70
2017-10-16T01:16:03.643Z,62.70
2017-10-16T01:17:08.456Z,62.70
2017-10-16T01:18:13.119Z,62.70
2017-10-16T01:19:17.894Z,62.70
2017-10-16T01:20:22.629Z,62.70
2017-10-16T01:21:27.556Z,62.60
2017-10-16T01:22:32.373Z,62.70
2017-10-16T01:23:37.334Z,62.70
2017-10-16T01:24:42.081Z,62.70
2017-10-16T01:25:46.825Z,62.60
2017-10-16T01:26:51.785Z,62.70
2017-10-16T01:27:56.497Z,62.70
2017-10-16T01:29:01.303Z,62.70
2017-10-16T01:30:06.120Z,62.70
2017-10-16T01:31:10.867Z,62.70
2017-10-16T01:32:15.698Z,62.70
2017-10-16T01:33:20.509Z,62.70
2017-10-16T01:34:25.227Z,62.60
2017-10-16T01:35:29.893Z,62.70
2017-10-16T01:36:34.700Z,62.70
2017-10-16T01:37:39.576Z,62.70
2017-10-16T01:38:44.367Z,62.70
2017-10-16T01:39:49.354Z,62.60
2017-10-16T01:40:54.179Z,62.50
2017-10-16T01:41:58.952Z,62.70
2017-10-16T01:43:03.826Z,62.70
2017-10-16T01:44:08.593Z,62.60
2017-10-16T01:45:13.310Z,62.60
2017-10-16T01:46:18.154Z,62.70
2017-10-16T01:47:23.020Z,62.60
2017-10-16T01:48:27.865Z,62.60
2017-10-16T01:49:32.653Z,62.70
2017-10-16T01:50:37.468Z,62.60
2017-10-16T01:51:42.312Z,62.60
2017-10-16T01:52:47.009Z,62.60
2017-10-16T01:53:51.762Z,62.60
2017-10-16T01:54:56.564Z,62.60
2017-10-16T01:56:01.418Z,62.60
2017-10-16T01:57:06.088Z,62.60
2017-10-16T01:58:10.933Z,62.60
2017-10-16T01:59:15.736Z,62.60
2017-10-16T02:00:20.642Z,62.60
2017-10-16T02:01:25.524Z,62.60
2017-10-16T02:02:30.418Z,62.60
2017-10-16T02:03:35.171Z,62.60
2017-10-16T02:04:39.987Z,62.60
2017-10-16T02:05:44.828Z,62.60
2017-10-16T02:06:49.820Z,62.60
2017-10-16T02:07:54.742Z,62.60
2017-10-16T02:08:59.568Z,62.60
2017-10-16T02:10:04.556Z,62.60
2017-10-16T02:11:09.576Z,62.60
2017-10-16T02:12:14.320Z,62.60
2017-10-16T02:13:19.376Z,62.50
2017-10-16T02:14:24.088Z,62.50
2017-10-16T02:15:29.030Z,62.50
2017-10-16T02:16:33.995Z,62.60
2017-10-16T02:17:38.931Z,62.60
2017-10-16T02:18:43.872Z,62.50
2017-10-16T02:19:48.840Z,62.50
2017-10-16T02:20:53.838Z,62.60
2017-10-16T02:21:58.728Z,62.50
2017-10-16T02:23:03.694Z,62.50
2017-10-16T02:24:08.642Z,62.50
2017-10-16T02:25:13.572Z,62.50
2017-10-16T02:26:18.524Z,62.50
2017-10-16T02:27:23.489Z,62.50
2017-10-16T02:28:28.514Z,62.50
2017-10-16T02:29:33.604Z,62.50
2017-10-16T02:30:38.539Z,62.50
2017-10-16T02:31:43.481Z,62.50
2017-10-16T02:32:48.505Z,62.50
2017-10-16T02:33:53.374Z,62.50
2017-10-16T02:34:58.357Z,62.50
2017-10-16T02:36:03.455Z,62.50
2017-10-16T02:37:08.326Z,62.50
2017-10-16T02:38:13.195Z,62.50
2017-10-16T02:39:18.021Z,62.50
2017-10-16T02:40:22.946Z,62.50
2017-10-16T02:41:27.716Z,62.50
2017-10-16T02:42:32.585Z,62.50
2017-10-16T02:43:37.353Z,62.50
2017-10-16T02:44:42.081Z,62.50
2017-10-16T02:45:47.053Z,62.50
2017-10-16T02:46:51.867Z,62.50
2017-10-16T02:47:56.650Z,62.50
2017-10-16T02:49:01.549Z,62.50
2017-10-16T02:50:06.547Z,62.50
2017-10-16T02:51:11.349Z,62.50
2017-10-16T02:52:16.067Z,62.50
2017-10-16T02:53:27.053Z,62.50
2017-10-16T02:54:39.775Z,62.50
2017-10-16T02:55:49.988Z,62.50
2017-10-16T02:56:56.869Z,62.50
2017-10-16T02:58:01.990Z,62.50
2017-10-16T02:59:06.820Z,62.40
2017-10-16T03:00:11.536Z,62.40
2017-10-16T03:01:16.518Z,62.40
2017-10-16T03:02:21.224Z,62.40
2017-10-16T03:03:26.054Z,62.40
2017-10-16T03:04:30.833Z,62.40
2017-10-16T03:05:35.650Z,62.50
2017-10-16T03:06:40.460Z,62.40
2017-10-16T03:07:45.409Z,62.40
2017-10-16T03:08:50.141Z,62.40
2017-10-16T03:09:54.983Z,62.40
2017-10-16T03:10:59.842Z,62.40
2017-10-16T03:12:04.588Z,62.40
2017-10-16T03:13:09.308Z,62.40
2017-10-16T03:14:14.252Z,62.30
2017-10-16T03:15:19.048Z,62.30
2017-10-16T03:16:23.837Z,62.30
2017-10-16T03:17:28.675Z,62.30
2017-10-16T03:18:33.484Z,62.40
2017-10-16T03:19:38.316Z,62.40
2017-10-16T03:20:43.218Z,62.40
2017-10-16T03:21:48.016Z,62.40
2017-10-16T03:22:52.781Z,62.40
2017-10-16T03:23:57.568Z,62.40
2017-10-16T03:25:02.530Z,62.40
2017-10-16T03:26:07.358Z,62.40
2017-10-16T03:27:12.140Z,62.40
2017-10-16T03:28:17.120Z,62.30
2017-10-16T03:29:22.199Z,62.40
2017-10-16T03:30:28.501Z,63.00
2017-10-16T03:31:33.856Z,62.40
2017-10-16T03:32:38.978Z,62.40
2017-10-16T03:33:44.040Z,62.30
2017-10-16T03:34:49.382Z,62.30
2017-10-16T03:35:54.713Z,62.30
2017-10-16T03:36:59.961Z,62.50
2017-10-16T03:38:05.291Z,62.30
2017-10-16T03:39:10.675Z,62.30
2017-10-16T03:40:16.024Z,62.20
2017-10-16T03:41:21.336Z,62.30
2017-10-16T03:42:26.739Z,62.20
2017-10-16T03:43:32.464Z,62.20
2017-10-16T03:44:37.628Z,62.10
2017-10-16T03:45:42.912Z,62.20
2017-10-16T03:46:48.495Z,62.10
2017-10-16T03:47:53.912Z,62.10
2017-10-16T03:48:59.014Z,62.10
2017-10-16T03:50:04.555Z,62.20
2017-10-16T03:51:09.918Z,62.10
2017-10-16T03:52:15.159Z,62.10
2017-10-16T03:53:20.497Z,62.10
2017-10-16T03:54:25.640Z,62.10
2017-10-16T03:55:30.955Z,62.10
2017-10-16T03:56:36.219Z,62.10
2017-10-16T03:57:41.223Z,62.10
2017-10-16T03:58:47.992Z,62.10
2017-10-16T03:59:53.639Z,62.10
2017-10-16T04:00:59.124Z,62.10
2017-10-16T04:02:04.255Z,62.10
2017-10-16T04:03:09.381Z,62.10
2017-10-16T04:04:14.495Z,62.10
2017-10-16T04:05:19.777Z,62.10
2017-10-16T04:06:24.940Z,62.00
2017-10-16T04:07:29.949Z,62.00
2017-10-16T04:08:35.289Z,62.10
2017-10-16T04:09:40.365Z,62.00
2017-10-16T04:10:48.282Z,62.10
2017-10-16T04:11:56.167Z,62.10
2017-10-16T04:13:04.020Z,62.10
2017-10-16T04:14:16.396Z,62.10
2017-10-16T04:15:24.874Z,62.70
2017-10-16T04:16:33.913Z,62.00
2017-10-16T04:17:43.262Z,62.00
2017-10-16T04:18:51.545Z,62.00
2017-10-16T04:19:59.171Z,62.00
2017-10-16T04:21:06.608Z,61.90
2017-10-16T04:22:14.730Z,62.00
2017-10-16T04:23:28.062Z,61.90
2017-10-16T04:24:38.111Z,61.90
2017-10-16T04:25:47.689Z,61.90
2017-10-16T04:26:56.083Z,61.80
2017-10-16T04:28:04.067Z,61.90
2017-10-16T04:29:12.440Z,61.90
2017-10-16T04:30:20.287Z,61.90
2017-10-16T04:31:26.680Z,61.80
2017-10-16T04:32:35.042Z,61.80
2017-10-16T04:33:41.578Z,61.90
2017-10-16T04:34:48.552Z,61.90
2017-10-16T04:35:54.999Z,61.90
2017-10-16T04:37:02.118Z,61.90
2017-10-16T04:38:07.742Z,61.80
2017-10-16T04:39:15.267Z,61.80
2017-10-16T04:40:23.114Z,61.80
2017-10-16T04:41:31.456Z,61.70
2017-10-16T04:42:39.604Z,61.70
2017-10-16T04:43:45.438Z,61.80
2017-10-16T04:44:51.541Z,61.80
2017-10-16T04:45:56.827Z,61.80
2017-10-16T04:47:03.932Z,61.80
2017-10-16T04:48:12.388Z,61.80
2017-10-16T04:49:20.455Z,61.80
2017-10-16T04:50:25.914Z,61.80
2017-10-16T04:51:31.037Z,61.90
2017-10-16T04:52:36.187Z,61.80
2017-10-16T04:53:43.673Z,61.80
2017-10-16T04:54:49.440Z,61.60
2017-10-16T04:55:56.854Z,61.50
2017-10-16T04:57:06.274Z,61.60
2017-10-16T04:58:14.029Z,61.70
2017-10-16T04:59:25.617Z,61.80
2017-10-16T05:00:33.293Z,61.80
2017-10-16T05:01:40.766Z,61.80
2017-10-16T05:02:48.011Z,62.40
2017-10-16T05:03:53.546Z,61.70
2017-10-16T05:04:58.799Z,61.70
2017-10-16T05:06:04.113Z,61.60
2017-10-16T05:07:09.230Z,61.50
2017-10-16T05:08:17.070Z,61.50
2017-10-16T05:09:22.909Z,61.60
2017-10-16T05:10:28.303Z,61.80
2017-10-16T05:11:33.525Z,61.90
2017-10-16T05:12:38.550Z,61.90
2017-10-16T05:13:44.097Z,62.00
2017-10-16T05:14:49.223Z,62.00
2017-10-16T05:15:54.505Z,62.10
2017-10-16T05:16:59.683Z,62.00
2017-10-16T05:18:04.887Z,62.20
2017-10-16T05:19:10.508Z,62.20
2017-10-16T05:20:15.508Z,62.30
2017-10-16T05:21:20.531Z,62.30
2017-10-16T05:22:25.780Z,62.40
2017-10-16T05:23:31.086Z,62.50
2017-10-16T05:24:36.189Z,62.40
2017-10-16T05:25:41.606Z,62.10
2017-10-16T05:26:46.694Z,61.90
2017-10-16T05:27:51.881Z,61.90
2017-10-16T05:28:57.077Z,62.00
2017-10-16T05:30:03.588Z,61.80
2017-10-16T05:31:08.682Z,61.70
2017-10-16T05:32:14.553Z,61.50
2017-10-16T05:33:19.655Z,61.60
2017-10-16T05:34:25.632Z,61.70
2017-10-16T05:35:31.212Z,61.90
2017-10-16T05:36:36.346Z,62.20
2017-10-16T05:37:41.522Z,62.40
2017-10-16T05:38:46.596Z,62.50
2017-10-16T05:39:51.765Z,62.30
2017-10-16T05:40:57.108Z,62.40
2017-10-16T05:42:02.644Z,62.40
2017-10-16T05:43:08.287Z,62.40
2017-10-16T05:44:13.593Z,62.50
2017-10-16T05:45:18.770Z,62.50
2017-10-16T05:46:24.205Z,62.70
2017-10-16T05:47:29.391Z,62.70
2017-10-16T05:48:34.693Z,62.70
2017-10-16T05:49:39.978Z,62.70
2017-10-16T05:50:45.287Z,62.70
2017-10-16T05:51:50.547Z,62.70
2017-10-16T05:52:55.617Z,62.70
2017-10-16T05:54:00.670Z,62.70
2017-10-16T05:55:05.745Z,62.80
2017-10-16T05:56:11.046Z,62.90
2017-10-16T05:57:16.088Z,62.90
2017-10-16T05:58:21.161Z,63.10
2017-10-16T05:59:26.763Z,62.70
2017-10-16T06:00:32.058Z,62.60
2017-10-16T06:01:37.282Z,61.80
2017-10-16T06:02:42.569Z,61.50
2017-10-16T06:03:49.149Z,61.40
2017-10-16T06:04:54.480Z,61.40
2017-10-16T06:05:59.753Z,61.10
2017-10-16T06:07:05.148Z,61.10
2017-10-16T06:08:10.579Z,61.10
2017-10-16T06:09:16.409Z,61.20
2017-10-16T06:10:22.162Z,61.50
2017-10-16T06:11:27.360Z,61.80
2017-10-16T06:12:32.680Z,61.90
2017-10-16T06:13:38.002Z,62.00
2017-10-16T06:14:43.573Z,62.10
2017-10-16T06:15:48.637Z,62.10
2017-10-16T06:16:53.948Z,62.10
2017-10-16T06:17:59.424Z,62.10
2017-10-16T06:19:05.769Z,62.40
2017-10-16T06:20:10.838Z,62.60
2017-10-16T06:21:16.054Z,62.70
2017-10-16T06:22:21.451Z,62.60
2017-10-16T06:23:26.961Z,62.60
2017-10-16T06:24:32.696Z,62.60
2017-10-16T06:25:38.872Z,62.50
2017-10-16T06:26:44.182Z,62.50
2017-10-16T06:27:49.423Z,62.60
2017-10-16T06:28:54.892Z,62.80
2017-10-16T06:30:00.126Z,62.90
2017-10-16T06:31:05.439Z,63.00
2017-10-16T06:32:10.667Z,63.00
2017-10-16T06:33:15.906Z,63.00
2017-10-16T06:34:21.435Z,62.90
2017-10-16T06:35:26.632Z,62.90
2017-10-16T06:36:31.959Z,62.90
2017-10-16T06:37:37.109Z,62.80
2017-10-16T06:38:42.206Z,62.80
2017-10-16T06:39:47.479Z,62.80
2017-10-16T06:40:52.466Z,62.70
2017-10-16T06:41:57.498Z,62.50
2017-10-16T06:43:02.841Z,62.00
2017-10-16T06:44:07.638Z,61.60
2017-10-16T06:45:12.885Z,61.70
2017-10-16T06:46:17.898Z,61.60
2017-10-16T06:47:22.677Z,61.50
2017-10-16T06:48:27.989Z,61.30
2017-10-16T06:49:33.155Z,61.50
2017-10-16T06:50:38.199Z,61.50
2017-10-16T06:51:43.235Z,61.40
2017-10-16T06:52:48.803Z,62.30
2017-10-16T06:53:54.434Z,61.40
2017-10-16T06:54:59.759Z,61.50
2017-10-16T06:56:05.022Z,61.50
2017-10-16T06:57:09.928Z,61.20
2017-10-16T06:58:14.894Z,61.40
2017-10-16T06:59:20.225Z,61.20
2017-10-16T07:00:25.366Z,60.60
2017-10-16T07:01:30.795Z,61.10
2017-10-16T07:02:36.068Z,60.90
2017-10-16T07:03:41.166Z,60.80
2017-10-16T07:04:46.288Z,60.90
2017-10-16T07:05:51.526Z,61.20
2017-10-16T07:06:56.720Z,60.80
2017-10-16T07:08:01.809Z,60.60
2017-10-16T07:09:06.985Z,60.70
2017-10-16T07:10:12.037Z,60.80
2017-10-16T07:11:16.921Z,60.90
2017-10-16T07:12:21.801Z,60.70
2017-10-16T07:13:27.923Z,60.90
2017-10-16T07:14:33.392Z,60.90
2017-10-16T07:15:38.663Z,60.80
2017-10-16T07:16:43.844Z,60.50
2017-10-16T07:17:48.935Z,60.60
2017-10-16T07:18:53.803Z,60.70
2017-10-16T07:19:59.278Z,60.70
2017-10-16T07:21:04.472Z,60.80
2017-10-16T07:22:09.727Z,60.80
2017-10-16T07:23:14.933Z,61.50
2017-10-16T07:24:19.906Z,60.80
2017-10-16T07:25:25.016Z,60.80
2017-10-16T07:26:30.019Z,60.70
2017-10-16T07:27:35.117Z,60.70
2017-10-16T07:28:40.529Z,60.70
2017-10-16T07:29:45.975Z,60.60
2017-10-16T07:30:51.108Z,60.70
2017-10-16T07:31:56.021Z,60.80
2017-10-16T07:33:01.458Z,61.40
2017-10-16T07:34:06.487Z,60.60
2017-10-16T07:35:11.571Z,60.80
2017-10-16T07:36:16.527Z,60.80
2017-10-16T07:37:22.531Z,60.80
2017-10-16T07:38:27.722Z,60.70
2017-10-16T07:39:33.113Z,60.70
2017-10-16T07:40:38.973Z,60.70
2017-10-16T07:41:44.126Z,60.90
2017-10-16T07:42:49.291Z,60.80
2017-10-16T07:43:54.312Z,60.70
2017-10-16T07:45:00.094Z,60.80
2017-10-16T07:46:05.439Z,60.80
2017-10-16T07:47:10.574Z,60.90
2017-10-16T07:48:15.602Z,61.00
2017-10-16T07:49:20.952Z,61.00
2017-10-16T07:50:26.283Z,61.00
2017-10-16T07:51:32.486Z,61.00
2017-10-16T07:52:37.729Z,61.00
2017-10-16T07:53:42.979Z,61.00
2017-10-16T07:54:48.283Z,61.00
2017-10-16T07:55:53.368Z,61.00
2017-10-16T07:56:58.380Z,61.00
2017-10-16T07:58:03.706Z,61.00
2017-10-16T07:59:08.513Z,60.90
2017-10-16T08:00:13.937Z,61.00
2017-10-16T08:01:19.148Z,61.00
2017-10-16T08:02:24.417Z,61.20
2017-10-16T08:03:29.660Z,61.30
2017-10-16T08:04:34.948Z,61.40
2017-10-16T08:05:42.410Z,61.40
2017-10-16T08:06:47.544Z,61.50
2017-10-16T08:07:52.754Z,61.60
2017-10-16T08:08:57.870Z,61.70
2017-10-16T08:10:03.525Z,61.80
2017-10-16T08:11:08.663Z,61.80
2017-10-16T08:12:13.902Z,61.80
2017-10-16T08:13:19.065Z,61.90
2017-10-16T08:14:24.152Z,61.90
2017-10-16T08:15:29.313Z,61.80
2017-10-16T08:16:34.440Z,62.00
2017-10-16T08:17:39.488Z,62.10
2017-10-16T08:18:44.669Z,62.00
2017-10-16T08:19:51.242Z,62.00
2017-10-16T08:20:58.085Z,62.20
2017-10-16T08:22:03.639Z,62.30
2017-10-16T08:23:09.883Z,62.20
2017-10-16T08:24:16.038Z,62.20
2017-10-16T08:25:21.768Z,62.70
2017-10-16T08:26:27.209Z,62.60
2017-10-16T08:27:33.257Z,61.80
2017-10-16T08:28:38.577Z,61.80
2017-10-16T08:29:43.866Z,61.70
2017-10-16T08:30:49.148Z,61.80
2017-10-16T08:31:54.495Z,61.70
2017-10-16T08:32:59.719Z,61.80
2017-10-16T08:34:05.110Z,61.70
2017-10-16T08:35:10.544Z,61.80
2017-10-16T08:36:15.822Z,61.90
2017-10-16T08:37:21.156Z,61.90
2017-10-16T08:38:26.797Z,61.90
2017-10-16T08:39:32.343Z,61.90
2017-10-16T08:40:38.340Z,61.90
2017-10-16T08:41:43.981Z,61.90
2017-10-16T08:42:49.082Z,61.80
2017-10-16T08:43:54.571Z,61.90
2017-10-16T08:45:00.067Z,61.70
2017-10-16T08:46:05.342Z,61.90
2017-10-16T08:47:10.234Z,61.80
2017-10-16T08:48:15.502Z,61.80
2017-10-16T08:49:20.925Z,61.70
2017-10-16T08:50:27.425Z,61.80
2017-10-16T08:51:33.118Z,61.80
2017-10-16T08:52:38.738Z,61.80
2017-10-16T08:53:44.595Z,61.80
2017-10-16T08:54:49.901Z,61.80
2017-10-16T08:55:56.822Z,61.90
2017-10-16T08:57:02.667Z,61.90
2017-10-16T08:58:08.152Z,62.00
2017-10-16T08:59:14.453Z,62.20
2017-10-16T09:00:20.349Z,62.20
2017-10-16T09:01:25.855Z,62.20
2017-10-16T09:02:31.700Z,62.20
2017-10-16T09:03:37.289Z,62.20
2017-10-16T09:04:42.893Z,62.20
2017-10-16T09:05:48.395Z,62.20
2017-10-16T09:06:54.093Z,62.30
2017-10-16T09:07:59.970Z,62.50
2017-10-16T09:09:05.853Z,62.40
2017-10-16T09:10:11.592Z,62.40
2017-10-16T09:11:17.064Z,62.40
2017-10-16T09:12:22.464Z,62.50
2017-10-16T09:13:28.880Z,62.60
2017-10-16T09:14:34.590Z,62.60
2017-10-16T09:15:40.096Z,62.80
2017-10-16T09:16:45.214Z,63.00
2017-10-16T09:17:50.416Z,63.20
2017-10-16T09:18:56.095Z,63.10
2017-10-16T09:20:01.074Z,63.00
2017-10-16T09:21:06.046Z,62.90
2017-10-16T09:22:11.002Z,62.90
2017-10-16T09:23:15.943Z,62.90
2017-10-16T09:24:21.498Z,63.00
2017-10-16T09:25:27.068Z,63.00
2017-10-16T09:26:32.707Z,63.10
2017-10-16T09:27:38.089Z,63.20
2017-10-16T09:28:43.717Z,63.40
2017-10-16T09:29:49.019Z,63.40
2017-10-16T09:30:54.633Z,63.40
2017-10-16T09:32:00.002Z,63.70
2017-10-16T09:33:05.666Z,64.00
2017-10-16T09:34:11.094Z,64.20
2017-10-16T09:35:16.411Z,64.10
2017-10-16T09:36:21.733Z,64.00
2017-10-16T09:37:27.394Z,64.10
2017-10-16T09:38:33.005Z,64.10
2017-10-16T09:39:38.354Z,64.30
2017-10-16T09:40:43.864Z,64.30
2017-10-16T09:41:49.288Z,64.30
2017-10-16T09:42:54.349Z,64.30
2017-10-16T09:43:59.537Z,64.40
2017-10-16T09:45:04.882Z,64.30
2017-10-16T09:46:10.753Z,64.30
2017-10-16T09:47:16.059Z,64.30
2017-10-16T09:48:21.813Z,64.30
2017-10-16T09:49:27.384Z,64.30
2017-10-16T09:50:33.291Z,64.20
2017-10-16T09:51:39.508Z,64.50
2017-10-16T09:52:45.513Z,64.40
2017-10-16T09:53:51.568Z,64.30
2017-10-16T09:54:57.302Z,64.10
2017-10-16T09:56:03.750Z,64.20
2017-10-16T09:57:08.996Z,64.30
2017-10-16T09:58:14.360Z,64.20
2017-10-16T09:59:19.715Z,64.20
2017-10-16T10:00:25.341Z,64.10
2017-10-16T10:01:30.577Z,64.10
2017-10-16T10:02:36.530Z,64.00
2017-10-16T10:03:41.831Z,64.00
2017-10-16T10:04:47.312Z,63.90
2017-10-16T10:05:52.597Z,63.80
2017-10-16T10:06:58.086Z,63.70
2017-10-16T10:08:03.053Z,63.50
2017-10-16T10:09:08.291Z,63.40
2017-10-16T10:10:13.470Z,63.40
2017-10-16T10:11:18.764Z,63.00
2017-10-16T10:12:23.725Z,63.10
2017-10-16T10:13:28.744Z,63.00
2017-10-16T10:14:34.109Z,62.70
2017-10-16T10:15:40.797Z,62.60
2017-10-16T10:16:46.125Z,62.90
2017-10-16T10:17:51.260Z,62.90
2017-10-16T10:18:57.140Z,62.90
2017-10-16T10:20:02.709Z,63.00
2017-10-16T10:21:08.273Z,63.00
2017-10-16T10:22:13.220Z,62.90
2017-10-16T10:23:18.730Z,62.80
2017-10-16T10:24:28.325Z,63.00
2017-10-16T10:25:33.218Z,62.90
2017-10-16T10:26:38.162Z,62.70
2017-10-16T10:27:43.498Z,62.70
2017-10-16T10:28:49.127Z,62.80
2017-10-16T10:29:54.289Z,63.60
2017-10-16T10:31:01.427Z,64.00
2017-10-16T10:32:06.942Z,64.10
2017-10-16T10:33:12.717Z,64.10
2017-10-16T10:34:18.599Z,64.10
2017-10-16T10:35:24.073Z,64.10
2017-10-16T10:36:29.719Z,64.00
2017-10-16T10:37:35.118Z,63.90
2017-10-16T10:38:40.505Z,63.80
2017-10-16T10:39:45.686Z,63.80
2017-10-16T10:40:51.344Z,63.80
2017-10-16T10:41:57.814Z,63.60
2017-10-16T10:43:03.289Z,64.40
2017-10-16T10:44:08.694Z,63.70
2017-10-16T10:45:14.623Z,63.60
2017-10-16T10:46:23.146Z,63.60
2017-10-16T10:47:30.175Z,63.80
2017-10-16T10:48:50.773Z,63.80
2017-10-16T10:49:56.621Z,63.80
2017-10-16T10:51:03.387Z,63.80
2017-10-16T10:52:10.141Z,63.70
2017-10-16T10:53:16.797Z,63.60
2017-10-16T10:54:23.197Z,63.50
2017-10-16T10:55:31.576Z,63.40
2017-10-16T10:56:36.800Z,63.40
2017-10-16T10:57:42.151Z,63.40
2017-10-16T10:58:47.476Z,64.00
2017-10-16T10:59:52.988Z,63.20
2017-10-16T11:00:58.543Z,63.10
2017-10-16T11:02:04.073Z,63.10
2017-10-16T11:03:09.648Z,63.20
2017-10-16T11:04:14.931Z,63.20
2017-10-16T11:05:21.531Z,63.20
2017-10-16T11:06:28.612Z,63.20
2017-10-16T11:07:34.125Z,63.30
2017-10-16T11:08:39.611Z,63.20
2017-10-16T11:09:44.535Z,63.10
2017-10-16T11:10:50.231Z,63.10
2017-10-16T11:11:55.518Z,63.00
2017-10-16T11:13:00.712Z,63.00
2017-10-16T11:14:05.805Z,63.00
2017-10-16T11:15:11.237Z,63.00
2017-10-16T11:16:16.482Z,63.10
2017-10-16T11:17:21.333Z,63.20
2017-10-16T11:18:26.112Z,63.30
2017-10-16T11:19:31.466Z,63.30
2017-10-16T11:20:36.945Z,63.30
2017-10-16T11:21:42.325Z,63.10
2017-10-16T11:22:47.727Z,63.20
2017-10-16T11:23:52.930Z,63.20
2017-10-16T11:24:57.989Z,63.30
2017-10-16T11:26:03.630Z,63.40
2017-10-16T11:27:09.056Z,63.40
2017-10-16T11:28:14.895Z,63.60
2017-10-16T11:29:20.128Z,63.60
2017-10-16T11:30:25.498Z,63.60
2017-10-16T11:31:31.923Z,63.60
2017-10-16T11:32:37.491Z,63.60
2017-10-16T11:33:42.899Z,63.60
2017-10-16T11:34:48.224Z,63.60
2017-10-16T11:35:53.865Z,63.50
2017-10-16T11:36:59.217Z,63.40
2017-10-16T11:38:04.784Z,63.40
2017-10-16T11:39:10.150Z,63.40
2017-10-16T11:40:15.528Z,63.40
2017-10-16T11:41:20.956Z,63.50
2017-10-16T11:42:26.255Z,63.70
2017-10-16T11:43:31.654Z,63.70
2017-10-16T11:44:37.605Z,63.70
2017-10-16T11:45:43.109Z,63.60
2017-10-16T11:46:48.275Z,63.60
2017-10-16T11:47:53.746Z,63.70
2017-10-16T11:48:59.078Z,63.80
2017-10-16T11:50:04.436Z,63.70
2017-10-16T11:51:09.741Z,63.90
2017-10-16T11:52:15.256Z,63.90
2017-10-16T11:53:20.511Z,64.00
2017-10-16T11:54:26.112Z,64.00
2017-10-16T11:55:31.477Z,64.00
2017-10-16T11:56:37.319Z,63.80
2017-10-16T11:57:42.367Z,63.70
2017-10-16T11:58:47.704Z,63.60
2017-10-16T11:59:52.748Z,63.50
2017-10-16T12:00:57.992Z,63.50
2017-10-16T12:02:03.454Z,63.60
2017-10-16T12:03:08.847Z,63.80
2017-10-16T12:04:14.316Z,63.80
2017-10-16T12:05:19.616Z,63.80
2017-10-16T12:06:24.751Z,63.90
2017-10-16T12:07:29.846Z,63.90
2017-10-16T12:08:35.105Z,63.80
2017-10-16T12:09:40.095Z,63.90
2017-10-16T12:10:45.590Z,63.90
2017-10-16T12:11:50.828Z,63.80
2017-10-16T12:12:55.735Z,63.60
2017-10-16T12:14:00.808Z,64.00
2017-10-16T12:15:06.215Z,63.80
2017-10-16T12:16:11.409Z,63.80
2017-10-16T12:17:16.910Z,63.70
2017-10-16T12:18:22.538Z,63.50
2017-10-16T12:19:28.078Z,63.50
2017-10-16T12:20:34.209Z,63.50
2017-10-16T12:21:39.479Z,63.70
2017-10-16T12:22:44.943Z,64.50
2017-10-16T12:23:49.922Z,63.90
2017-10-16T12:24:55.129Z,63.70
2017-10-16T12:26:00.371Z,63.70
2017-10-16T12:27:05.836Z,63.70
2017-10-16T12:28:11.016Z,63.70
2017-10-16T12:29:16.162Z,63.60
2017-10-16T12:30:21.495Z,63.50
2017-10-16T12:31:26.445Z,63.50
2017-10-16T12:32:31.522Z,63.70
2017-10-16T12:33:37.472Z,63.70
2017-10-16T12:34:43.333Z,63.60
2017-10-16T12:35:48.519Z,63.70
2017-10-16T12:36:54.059Z,63.70
2017-10-16T12:37:58.982Z,63.70
2017-10-16T12:39:04.354Z,63.70
2017-10-16T12:40:10.931Z,63.60
2017-10-16T12:41:16.339Z,63.60
2017-10-16T12:42:21.771Z,63.40
2017-10-16T12:43:26.909Z,63.30
2017-10-16T12:44:32.331Z,63.20
2017-10-16T12:45:37.348Z,63.20
2017-10-16T12:46:42.248Z,63.20
2017-10-16T12:47:47.168Z,63.30
2017-10-16T12:48:52.030Z,63.20
2017-10-16T12:49:57.074Z,63.20
2017-10-16T12:51:02.167Z,63.00
2017-10-16T12:52:07.342Z,63.00
2017-10-16T12:53:12.441Z,62.80
2017-10-16T12:54:17.377Z,62.70
2017-10-16T12:55:22.414Z,63.20
2017-10-16T12:56:27.386Z,62.50
2017-10-16T12:57:32.551Z,62.40
2017-10-16T12:58:37.499Z,62.50
2017-10-16T12:59:42.473Z,62.40
2017-10-16T13:00:47.326Z,62.20
2017-10-16T13:01:52.196Z,62.20
2017-10-16T13:02:57.195Z,62.10
2017-10-16T13:04:02.063Z,62.30
2017-10-16T13:05:06.847Z,62.30
2017-10-16T13:06:11.825Z,62.30
2017-10-16T13:07:16.831Z,62.40
2017-10-16T13:08:21.772Z,62.50
2017-10-16T13:09:26.688Z,62.50
2017-10-16T13:10:31.634Z,62.60
2017-10-16T13:11:36.532Z,62.70
2017-10-16T13:12:41.744Z,62.70
2017-10-16T13:13:46.813Z,62.60
2017-10-16T13:14:51.644Z,62.70
2017-10-16T13:15:56.691Z,62.70
2017-10-16T13:17:01.612Z,62.70
2017-10-16T13:18:06.660Z,62.60
2017-10-16T13:19:11.753Z,62.60
2017-10-16T13:20:16.865Z,62.50
2017-10-16T13:21:21.951Z,62.90
2017-10-16T13:22:27.066Z,63.20
2017-10-16T13:23:32.433Z,63.20
2017-10-16T13:24:37.474Z,63.30
2017-10-16T13:25:42.391Z,63.50
2017-10-16T13:26:47.334Z,63.50
2017-10-16T13:27:52.284Z,63.50
2017-10-16T13:28:57.453Z,63.30
2017-10-16T13:30:02.412Z,63.20
2017-10-16T13:31:07.616Z,63.40
2017-10-16T13:32:12.594Z,63.50
2017-10-16T13:33:17.771Z,63.20
2017-10-16T13:34:22.631Z,63.30
2017-10-16T13:35:27.764Z,63.10
2017-10-16T13:36:32.746Z,63.00
2017-10-16T13:37:37.924Z,63.00
2017-10-16T13:38:43.154Z,63.10
2017-10-16T13:39:49.308Z,63.00
2017-10-16T13:40:54.470Z,63.00
2017-10-16T13:41:59.361Z,63.80
2017-10-16T13:43:04.579Z,63.50
2017-10-16T13:44:09.598Z,63.40
2017-10-16T13:45:14.463Z,63.10
2017-10-16T13:46:19.772Z,63.00
2017-10-16T13:47:24.770Z,62.90
2017-10-16T13:48:29.719Z,62.60
2017-10-16T13:49:34.735Z,62.40
2017-10-16T13:50:39.567Z,62.30
2017-10-16T13:51:44.695Z,62.20
2017-10-16T13:52:49.605Z,62.20
2017-10-16T13:53:54.498Z,62.00
2017-10-16T13:55:00.291Z,61.90
2017-10-16T13:56:05.536Z,61.90
2017-10-16T13:57:10.657Z,61.80
2017-10-16T13:58:15.713Z,61.70
2017-10-16T13:59:21.042Z,61.60
2017-10-16T14:00:25.929Z,61.50
2017-10-16T14:01:30.836Z,61.70
2017-10-16T14:02:36.006Z,61.80